Time;durP1;ratioP1;P1;durP2;ratioP2;P2;SDS_P1;SDS_P2;PMS_P1;PMS_P2;Temp;Humidity;BMP_temperature;BMP_pressure;BME280_temperature;BME280_humidity;BME280_pressure;Samples;Min_cycle;Max_cycle;Signal;HPM_P1;HPM_P2
2022/03/07 00:01:42;;;;;;;0.43;0.32;;;20.70;40.20;;;;;;5083239;27;43458;-62
2022/03/07 00:04:14;;;;;;;0.30;0.30;;;20.70;40.20;;;;;;5084521;27;44701;-62
2022/03/07 00:06:41;;;;;;;;;;;20.70;40.30;;;;;;5084885;27;43645;-62
2022/03/07 00:09:09;;;;;;;0.50;0.50;;;20.70;40.30;;;;;;5085425;27;43448;-62
2022/03/07 00:11:37;;;;;;;0.50;0.50;;;20.60;40.20;;;;;;5083662;28;44153;-62
2022/03/07 00:14:05;;;;;;;0.85;0.50;;;20.60;40.20;;;;;;5084402;27;43750;-62
2022/03/07 00:16:33;;;;;;;1.00;0.50;;;20.60;40.20;;;;;;5084897;28;43497;-62
2022/03/07 00:19:01;;;;;;;0.40;0.40;;;20.60;40.30;;;;;;5084627;28;43443;-62
2022/03/07 00:21:28;;;;;;;0.70;0.50;;;20.60;40.20;;;;;;5084146;28;43478;-62
2022/03/07 00:23:56;;;;;;;0.40;0.32;;;20.60;40.30;;;;;;5084113;27;43803;-62
2022/03/07 00:26:24;;;;;;;0.68;0.40;;;20.50;40.30;;;;;;5084713;27;43969;-62
2022/03/07 00:28:51;;;;;;;0.38;0.38;;;20.60;40.30;;;;;;5082630;28;43467;-62
2022/03/07 00:31:23;;;;;;;0.30;0.30;;;20.50;40.20;;;;;;5084227;27;43470;-62
2022/03/07 00:33:51;;;;;;;0.40;0.40;;;20.50;40.20;;;;;;5084592;27;43797;-62
2022/03/07 00:36:19;;;;;;;0.55;0.50;;;20.50;40.30;;;;;;5100041;27;43395;-62
2022/03/07 00:38:48;;;;;;;0.95;0.65;;;20.50;40.30;;;;;;5083354;28;43510;-62
2022/03/07 00:41:15;;;;;;;0.40;0.40;;;20.50;40.30;;;;;;5080881;28;44078;-62
2022/03/07 00:43:44;;;;;;;0.50;0.47;;;20.40;40.30;;;;;;5084022;27;45310;-62
2022/03/07 00:46:12;;;;;;;0.77;0.57;;;20.50;40.30;;;;;;5083310;28;43536;-62
2022/03/07 00:48:39;;;;;;;1.40;0.50;;;20.40;40.30;;;;;;5084703;27;43473;-62
2022/03/07 00:51:10;;;;;;;0.70;0.40;;;20.40;40.30;;;;;;5081435;28;43506;-62
2022/03/07 00:53:37;;;;;;;0.47;0.47;;;20.40;40.30;;;;;;5084260;27;44692;-62
2022/03/07 00:56:07;;;;;;;0.65;0.35;;;20.30;40.30;;;;;;5082586;28;44182;-62
2022/03/07 00:58:34;;;;;;;1.95;0.65;;;20.30;40.30;;;;;;5080729;28;44054;-62
2022/03/07 01:01:03;;;;;;;1.42;0.73;;;20.30;40.30;;;;;;5084013;27;44003;-62
2022/03/07 01:03:31;;;;;;;0.40;0.38;;;20.30;40.30;;;;;;5075850;28;43906;-62
2022/03/07 01:05:58;;;;;;;0.52;0.52;;;20.30;40.30;;;;;;5083762;27;43543;-62
2022/03/07 01:08:26;;;;;;;1.55;0.55;;;20.30;40.30;;;;;;5081186;28;43521;-62
2022/03/07 01:10:54;;;;;;;0.52;0.40;;;20.20;40.30;;;;;;5083877;28;44088;-63
2022/03/07 01:13:22;;;;;;;0.38;0.38;;;20.20;40.30;;;;;;5082475;27;44963;-62
2022/03/07 01:15:49;;;;;;;0.60;0.50;;;20.20;40.20;;;;;;5083344;27;44007;-62
2022/03/07 01:18:18;;;;;;;0.65;0.55;;;20.20;41.00;;;;;;5081142;28;43992;-61
2022/03/07 01:20:46;;;;;;;0.40;0.40;;;20.20;40.30;;;;;;5082954;28;43415;-62
2022/03/07 01:23:13;;;;;;;1.13;0.70;;;20.20;40.30;;;;;;5083790;27;44475;-62
2022/03/07 01:25:41;;;;;;;0.63;0.57;;;20.10;40.20;;;;;;5083693;27;43510;-62
2022/03/07 01:28:08;;;;;;;0.50;0.50;;;20.10;40.20;;;;;;5084076;28;43433;-62
2022/03/07 01:30:37;;;;;;;0.50;0.50;;;20.10;40.30;;;;;;5082427;28;43501;-62
2022/03/07 01:33:04;;;;;;;0.52;0.52;;;20.10;40.30;;;;;;5082261;28;44054;-62
2022/03/07 01:35:32;;;;;;;0.75;0.60;;;20.10;40.30;;;;;;5083372;27;44191;-61
2022/03/07 01:38:00;;;;;;;1.05;0.60;;;20.00;40.20;;;;;;5080453;28;43449;-62
2022/03/07 01:40:27;;;;;;;0.43;0.43;;;20.00;40.20;;;;;;5082131;28;43517;-62
2022/03/07 01:42:55;;;;;;;0.43;0.43;;;20.00;40.30;;;;;;5082845;28;44987;-62
2022/03/07 01:45:25;;;;;;;0.40;0.40;;;20.00;40.30;;;;;;5063034;28;43752;-62
2022/03/07 01:47:53;;;;;;;0.63;0.47;;;20.00;40.30;;;;;;5083452;27;43482;-62
2022/03/07 01:50:21;;;;;;;0.30;0.30;;;20.00;40.30;;;;;;5082546;28;44186;-62
2022/03/07 01:52:53;;;;;;;0.65;0.60;;;20.00;40.30;;;;;;5065329;28;43931;-62
2022/03/07 01:55:23;;;;;;;0.38;0.38;;;19.90;40.30;;;;;;5078721;28;43472;-62
2022/03/07 01:57:53;;;;;;;0.50;0.40;;;19.90;40.30;;;;;;5079370;28;43451;-62
2022/03/07 02:00:26;;;;;;;0.40;0.40;;;19.90;40.30;;;;;;5078572;28;43578;-62
2022/03/07 02:02:55;;;;;;;0.73;0.45;;;19.90;40.30;;;;;;5079482;28;44053;-62
2022/03/07 02:05:34;;;;;;;0.63;0.55;;;19.90;40.30;;;;;;5099216;27;44070;-63
2022/03/07 02:08:07;;;;;;;1.00;0.50;;;19.90;40.30;;;;;;5078469;28;43420;-62
2022/03/07 02:10:52;;;;;;;0.80;0.80;;;19.80;40.30;;;;;;5079077;28;43549;-62
2022/03/07 02:13:21;;;;;;;0.77;0.52;;;19.80;40.30;;;;;;5082212;28;45014;-62
2022/03/07 02:15:56;;;;;;;0.50;0.40;;;19.80;40.40;;;;;;5082276;28;43552;-62
2022/03/07 02:18:30;;;;;;;0.60;0.60;;;19.80;40.40;;;;;;5079083;28;43513;-62
2022/03/07 02:21:16;;;;;;;0.65;0.43;;;19.80;40.30;;;;;;5082419;28;43469;-62
2022/03/07 02:24:05;;;;;;;0.52;0.52;;;19.80;40.30;;;;;;5082327;27;44954;-62
2022/03/07 02:26:33;;;;;;;0.70;0.57;;;19.70;40.30;;;;;;5082504;28;43499;-62
2022/03/07 02:29:03;;;;;;;0.85;0.52;;;19.70;40.30;;;;;;5084075;28;43418;-62
2022/03/07 02:31:34;;;;;;;0.70;0.60;;;19.70;40.30;;;;;;5087048;27;43561;-62
2022/03/07 02:34:07;;;;;;;1.15;0.57;;;19.70;40.30;;;;;;5082286;28;44951;-62
2022/03/07 02:36:35;;;;;;;0.93;0.50;;;19.70;40.30;;;;;;5083514;28;43966;-62
2022/03/07 02:39:05;;;;;;;0.68;0.40;;;19.70;40.30;;;;;;5085440;28;43425;-62
2022/03/07 02:41:34;;;;;;;0.75;0.52;;;19.60;40.20;;;;;;5083176;28;43514;-62
2022/03/07 02:44:01;;;;;;;0.40;0.40;;;19.70;40.30;;;;;;5081412;28;43867;-62
2022/03/07 02:46:29;;;;;;;0.40;0.40;;;19.60;40.20;;;;;;5084927;28;43410;-62
2022/03/07 02:48:57;;;;;;;0.60;0.40;;;19.60;40.30;;;;;;5085618;28;43518;-62
2022/03/07 02:51:24;;;;;;;1.27;0.60;;;19.60;40.30;;;;;;5082325;28;43447;-62
2022/03/07 02:53:52;;;;;;;0.82;0.63;;;19.60;40.30;;;;;;5096418;27;44935;-62
2022/03/07 02:56:19;;;;;;;0.60;0.60;;;19.60;40.30;;;;;;5084897;28;43842;-62
2022/03/07 02:58:47;;;;;;;0.60;0.60;;;19.60;40.30;;;;;;5086499;27;43438;-62
2022/03/07 03:01:14;;;;;;;0.32;0.32;;;19.50;40.20;;;;;;5086264;28;43569;-62
2022/03/07 03:03:42;;;;;;;0.60;0.60;;;19.60;40.40;;;;;;5080789;28;44063;-62
2022/03/07 03:06:09;;;;;;;0.90;0.50;;;19.50;40.30;;;;;;5085702;28;43544;-62
2022/03/07 03:08:37;;;;;;;0.60;0.60;;;19.50;40.20;;;;;;5086147;27;43458;-62
2022/03/07 03:11:04;;;;;;;0.45;0.45;;;19.50;40.30;;;;;;5082255;28;43606;-62
2022/03/07 03:13:32;;;;;;;0.60;0.60;;;19.50;40.30;;;;;;5085994;27;43805;-62
2022/03/07 03:15:59;;;;;;;0.52;0.52;;;19.50;40.30;;;;;;5085865;27;43403;-62
2022/03/07 03:18:27;;;;;;;0.70;0.60;;;19.40;40.30;;;;;;5083056;27;43461;-62
2022/03/07 03:20:54;;;;;;;0.63;0.60;;;19.50;40.30;;;;;;5081973;28;43425;-62
2022/03/07 03:23:22;;;;;;;0.55;0.50;;;19.40;40.30;;;;;;5080575;28;43580;-63
2022/03/07 03:25:50;;;;;;;0.50;0.50;;;19.40;40.30;;;;;;5079777;28;43506;-62
2022/03/07 03:28:18;;;;;;;0.75;0.60;;;19.40;40.30;;;;;;5086190;27;43491;-62
2022/03/07 03:30:45;;;;;;;0.52;0.52;;;19.40;40.30;;;;;;5085032;28;43473;-62
2022/03/07 03:33:13;;;;;;;0.75;0.52;;;19.40;40.30;;;;;;5086092;27;45017;-62
2022/03/07 03:35:40;;;;;;;0.80;0.50;;;19.30;40.30;;;;;;5085664;27;43586;-62
2022/03/07 03:38:08;;;;;;;0.52;0.50;;;19.30;41.00;;;;;;5085391;27;43484;-61
2022/03/07 03:40:37;;;;;;;0.40;0.40;;;19.30;40.30;;;;;;5086360;28;43557;-62
2022/03/07 03:43:05;;;;;;;0.80;0.70;;;19.30;40.20;;;;;;5085728;27;43932;-62
2022/03/07 03:45:32;;;;;;;0.77;0.57;;;19.30;40.20;;;;;;5085633;27;43454;-62
2022/03/07 03:48:00;;;;;;;0.50;0.50;;;19.30;40.30;;;;;;5085004;28;43466;-62
2022/03/07 03:50:28;;;;;;;0.60;0.57;;;19.30;40.30;;;;;;5086191;27;43446;-62
2022/03/07 03:52:55;;;;;;;0.60;0.60;;;19.30;40.30;;;;;;5085706;27;44861;-62
2022/03/07 03:55:23;;;;;;;0.50;0.50;;;19.30;40.30;;;;;;5085267;27;43680;-62
2022/03/07 03:57:50;;;;;;;1.05;0.50;;;19.30;40.30;;;;;;5085714;28;43495;-62
2022/03/07 04:00:18;;;;;;;0.52;0.50;;;19.20;40.30;;;;;;5085971;27;43456;-62
2022/03/07 04:02:46;;;;;;;1.00;0.70;;;19.20;40.30;;;;;;5100272;27;44038;-62
2022/03/07 04:05:15;;;;;;;0.73;0.55;;;19.20;40.30;;;;;;5085083;27;43562;-62
2022/03/07 04:07:44;;;;;;;0.50;0.50;;;19.20;40.30;;;;;;5084018;28;43448;-62
2022/03/07 04:10:13;;;;;;;0.60;0.60;;;19.10;40.30;;;;;;5085519;27;43550;-62
2022/03/07 04:12:42;;;;;;;0.65;0.60;;;19.10;40.30;;;;;;5085042;27;44061;-62
2022/03/07 04:15:11;;;;;;;0.60;0.60;;;19.10;40.20;;;;;;5085055;27;44014;-62
2022/03/07 04:17:42;;;;;;;1.05;0.60;;;19.10;40.20;;;;;;5083578;28;43499;-62
2022/03/07 04:20:10;;;;;;;;;;;19.10;40.20;;;;;;5085728;27;43393;-62
2022/03/07 04:22:38;;;;;;;0.82;0.75;;;19.10;40.20;;;;;;5084018;28;45107;-62
2022/03/07 04:25:07;;;;;;;0.93;0.50;;;19.10;40.30;;;;;;5084520;28;43529;-62
2022/03/07 04:27:34;;;;;;;0.60;0.60;;;19.00;40.30;;;;;;5085263;27;43502;-62
2022/03/07 04:30:04;;;;;;;0.75;0.68;;;19.10;40.30;;;;;;5085184;27;43490;-62
2022/03/07 04:32:36;;;;;;;0.75;0.63;;;19.10;40.30;;;;;;5085203;27;43802;-62
2022/03/07 04:35:06;;;;;;;0.75;0.70;;;19.00;40.20;;;;;;5084706;27;43446;-61
2022/03/07 04:37:34;;;;;;;0.55;0.50;;;19.00;40.30;;;;;;5085255;27;43442;-62
2022/03/07 04:40:03;;;;;;;0.85;0.77;;;19.00;40.30;;;;;;5085287;27;43503;-62
2022/03/07 04:42:31;;;;;;;0.50;0.45;;;19.00;40.30;;;;;;5084775;27;44981;-62
2022/03/07 04:44:58;;;;;;;0.75;0.60;;;19.00;40.20;;;;;;5084540;27;43484;-62
2022/03/07 04:47:26;;;;;;;0.60;0.60;;;19.00;40.20;;;;;;5085154;27;43440;-61
2022/03/07 04:49:53;;;;;;;0.60;0.60;;;18.90;40.20;;;;;;5084297;28;43508;-62
2022/03/07 04:52:21;;;;;;;0.88;0.80;;;19.00;40.30;;;;;;5085233;27;44637;-62
2022/03/07 04:54:48;;;;;;;0.65;0.65;;;18.90;40.20;;;;;;5084062;27;43502;-61
2022/03/07 04:57:16;;;;;;;0.70;0.60;;;18.90;40.20;;;;;;5073661;28;43429;-62
2022/03/07 04:59:45;;;;;;;1.52;0.80;;;18.90;40.30;;;;;;5084842;28;43482;-61
2022/03/07 05:02:13;;;;;;;0.75;0.50;;;18.90;40.20;;;;;;5080890;28;43808;-62
2022/03/07 05:04:41;;;;;;;0.50;0.50;;;18.90;40.20;;;;;;5074309;28;43469;-62
2022/03/07 05:07:09;;;;;;;0.40;0.40;;;18.90;40.30;;;;;;5080895;27;43462;-62
2022/03/07 05:09:36;;;;;;;0.55;0.50;;;18.80;40.30;;;;;;5085198;27;44247;-62
2022/03/07 05:12:04;;;;;;;0.50;0.50;;;18.90;40.30;;;;;;5079915;27;44946;-62
2022/03/07 05:14:31;;;;;;;0.70;0.70;;;18.80;40.20;;;;;;5083158;28;43434;-61
2022/03/07 05:16:59;;;;;;;0.93;0.63;;;18.90;40.20;;;;;;5079643;28;44098;-61
2022/03/07 05:19:26;;;;;;;0.68;0.47;;;18.80;40.10;;;;;;5081240;27;43480;-62
2022/03/07 05:21:54;;;;;;;1.00;0.50;;;18.80;40.20;;;;;;5074433;27;44698;-61
2022/03/07 05:24:21;;;;;;;0.50;0.50;;;18.80;40.30;;;;;;5075165;28;43422;-61
2022/03/07 05:26:49;;;;;;;0.80;0.80;;;18.70;40.20;;;;;;5084382;27;43533;-63
2022/03/07 05:29:16;;;;;;;1.10;0.85;;;18.80;40.30;;;;;;5079897;28;43613;-62
2022/03/07 05:31:44;;;;;;;0.60;0.60;;;18.80;40.30;;;;;;5082554;28;44724;-61
2022/03/07 05:34:11;;;;;;;0.85;0.82;;;18.70;40.20;;;;;;5083244;27;43580;-61
2022/03/07 05:36:39;;;;;;;0.60;0.50;;;18.70;40.20;;;;;;5083760;27;43448;-61
2022/03/07 05:39:06;;;;;;;0.50;0.50;;;18.80;40.30;;;;;;5084411;27;43465;-61
2022/03/07 05:41:34;;;;;;;0.60;0.60;;;18.70;40.20;;;;;;5084172;27;44668;-61
2022/03/07 05:44:01;;;;;;;0.50;0.50;;;18.70;40.20;;;;;;5083404;27;43578;-61
2022/03/07 05:46:29;;;;;;;1.08;0.82;;;18.70;40.30;;;;;;5079210;28;43527;-62
2022/03/07 05:48:57;;;;;;;0.50;0.50;;;18.70;40.30;;;;;;5078951;28;43470;-61
2022/03/07 05:51:25;;;;;;;0.57;0.57;;;18.60;40.20;;;;;;5083822;27;44719;-62
2022/03/07 05:53:52;;;;;;;0.50;0.50;;;18.70;40.30;;;;;;5082966;28;43957;-62
2022/03/07 05:56:20;;;;;;;0.70;0.50;;;18.60;40.30;;;;;;5083590;27;43480;-61
2022/03/07 05:58:48;;;;;;;0.68;0.68;;;18.60;40.20;;;;;;5083910;27;43450;-61
2022/03/07 06:01:15;;;;;;;0.88;0.60;;;18.60;40.30;;;;;;5083517;28;43707;-61
2022/03/07 06:03:43;;;;;;;0.70;0.70;;;18.60;40.20;;;;;;5096581;27;43545;-62
2022/03/07 06:06:10;;;;;;;0.55;0.40;;;18.60;40.30;;;;;;5083228;27;44017;-61
2022/03/07 06:08:38;;;;;;;0.60;0.60;;;18.50;40.20;;;;;;5083681;27;43450;-61
2022/03/07 06:11:05;;;;;;;0.63;0.57;;;18.50;40.30;;;;;;5081306;27;43964;-61
2022/03/07 06:13:33;;;;;;;0.60;0.60;;;18.60;40.30;;;;;;5082760;28;43533;-62
2022/03/07 06:16:00;;;;;;;0.55;0.40;;;18.60;40.30;;;;;;5083744;27;43460;-62
2022/03/07 06:18:27;;;;;;;1.00;0.68;;;18.60;40.30;;;;;;5083561;28;43488;-61
2022/03/07 06:20:55;;;;;;;1.10;0.88;;;18.50;40.20;;;;;;5081474;28;43816;-61
2022/03/07 06:23:23;;;;;;;0.60;0.60;;;18.50;40.20;;;;;;5081865;28;43443;-61
2022/03/07 06:25:52;;;;;;;0.77;0.60;;;18.50;40.30;;;;;;5083440;27;43528;-61
2022/03/07 06:28:19;;;;;;;0.57;0.57;;;18.50;40.20;;;;;;5083975;27;43525;-61
2022/03/07 06:30:47;;;;;;;1.58;0.77;;;18.50;40.90;;;;;;5083079;27;44041;-62
2022/03/07 06:33:15;;;;;;;0.52;0.52;;;18.50;40.30;;;;;;5083215;28;43717;-62
2022/03/07 06:35:43;;;;;;;0.73;0.60;;;18.50;40.30;;;;;;5082957;27;43461;-62
2022/03/07 06:38:11;;;;;;;0.73;0.70;;;18.40;40.30;;;;;;5083741;28;43727;-61
2022/03/07 06:40:38;;;;;;;0.68;0.60;;;18.40;40.30;;;;;;5083502;27;44758;-61
2022/03/07 06:43:06;;;;;;;0.63;0.63;;;18.40;40.30;;;;;;5114216;27;43509;-61
2022/03/07 06:45:33;;;;;;;0.70;0.70;;;18.40;40.30;;;;;;5082964;27;43423;-61
2022/03/07 06:48:01;;;;;;;0.90;0.50;;;18.40;40.40;;;;;;5083357;28;43722;-61
2022/03/07 06:50:29;;;;;;;1.00;0.70;;;18.40;40.40;;;;;;5082934;27;43808;-62
2022/03/07 06:52:57;;;;;;;0.65;0.65;;;18.40;40.40;;;;;;5080335;28;43625;-61
2022/03/07 06:55:25;;;;;;;0.90;0.70;;;18.30;40.40;;;;;;5075911;28;43561;-62
2022/03/07 06:57:53;;;;;;;0.73;0.70;;;18.30;40.40;;;;;;5081108;28;43605;-62
2022/03/07 07:00:20;;;;;;;1.95;1.00;;;18.30;40.40;;;;;;5082955;27;43745;-61
2022/03/07 07:02:48;;;;;;;1.63;0.70;;;18.30;40.50;;;;;;5076999;28;43460;-61
2022/03/07 07:05:16;;;;;;;1.27;0.80;;;18.30;40.40;;;;;;5082548;27;43908;-61
2022/03/07 07:07:45;;;;;;;1.02;0.90;;;18.30;40.50;;;;;;5082730;27;43514;-61
2022/03/07 07:10:15;;;;;;;1.75;0.60;;;18.30;40.50;;;;;;5083167;27;43677;-62
2022/03/07 07:12:43;;;;;;;0.80;0.80;;;18.30;40.50;;;;;;5084655;28;43695;-61
2022/03/07 07:15:11;;;;;;;0.98;0.80;;;18.30;40.50;;;;;;5085024;27;43468;-61
2022/03/07 07:17:38;;;;;;;1.83;0.95;;;18.30;40.50;;;;;;5086391;27;43394;-61
2022/03/07 07:20:07;;;;;;;0.70;0.70;;;18.20;40.50;;;;;;5085925;27;44719;-62
2022/03/07 07:22:35;;;;;;;1.73;0.85;;;18.20;40.50;;;;;;5086261;27;43442;-61
2022/03/07 07:25:05;;;;;;;1.00;0.90;;;18.20;40.60;;;;;;5085934;27;43429;-61
2022/03/07 07:27:32;;;;;;;1.67;0.88;;;18.20;40.50;;;;;;5086248;28;43566;-61
2022/03/07 07:30:00;;;;;;;0.98;0.88;;;18.20;40.60;;;;;;5086187;27;44872;-61
2022/03/07 07:32:28;;;;;;;0.95;0.85;;;18.20;40.60;;;;;;5085918;27;43462;-61
2022/03/07 07:34:55;;;;;;;0.75;0.70;;;18.20;40.60;;;;;;5086050;27;43422;-61
2022/03/07 07:37:23;;;;;;;0.50;0.50;;;18.20;40.60;;;;;;5101758;27;43506;-61
2022/03/07 07:39:50;;;;;;;0.70;0.70;;;18.20;40.60;;;;;;5085691;27;44044;-62
2022/03/07 07:42:18;;;;;;;0.90;0.68;;;18.20;40.60;;;;;;5085559;27;43540;-61
2022/03/07 07:44:45;;;;;;;0.77;0.70;;;18.20;40.60;;;;;;5085865;27;44031;-61
2022/03/07 07:47:13;;;;;;;1.20;0.70;;;18.20;40.70;;;;;;5085903;27;43450;-61
2022/03/07 07:49:41;;;;;;;1.23;0.90;;;18.20;40.80;;;;;;5086087;27;43987;-61
2022/03/07 07:52:09;;;;;;;0.70;0.70;;;18.20;40.80;;;;;;5085797;27;43740;-61
2022/03/07 07:54:36;;;;;;;0.82;0.65;;;18.20;40.80;;;;;;5085035;27;43430;-62
2022/03/07 07:57:07;;;;;;;0.93;0.70;;;18.20;40.90;;;;;;5085418;27;43529;-61
2022/03/07 07:59:34;;;;;;;1.10;0.60;;;18.20;40.90;;;;;;5085832;27;44007;-61
2022/03/07 08:02:17;;;;;;;0.98;0.90;;;18.20;40.80;;;;;;5079353;28;43689;-61
2022/03/07 08:04:45;;;;;;;0.85;0.70;;;18.20;40.90;;;;;;5085627;27;43417;-61
2022/03/07 08:07:13;;;;;;;1.98;1.08;;;18.20;40.80;;;;;;5085058;27;43446;-62
2022/03/07 08:09:40;;;;;;;0.70;0.70;;;18.20;40.80;;;;;;5084960;27;44680;-61
2022/03/07 08:12:08;;;;;;;0.70;0.70;;;18.30;41.00;;;;;;5101067;27;43743;-61
2022/03/07 08:14:37;;;;;;;1.10;0.80;;;18.30;40.80;;;;;;5085028;27;43443;-61
2022/03/07 08:17:06;;;;;;;0.70;0.60;;;18.30;40.90;;;;;;5083880;28;43464;-61
2022/03/07 08:19:34;;;;;;;0.82;0.70;;;18.30;40.90;;;;;;5067326;28;44758;-61
2022/03/07 08:22:01;;;;;;;0.70;0.70;;;18.30;40.80;;;;;;5085104;27;43511;-61
2022/03/07 08:24:29;;;;;;;1.23;0.70;;;18.30;40.90;;;;;;5081373;28;43458;-62
2022/03/07 08:26:57;;;;;;;0.82;0.80;;;18.30;40.90;;;;;;5083800;28;43424;-62
2022/03/07 08:29:25;;;;;;;1.67;0.80;;;18.30;40.90;;;;;;5085201;27;43792;-62
2022/03/07 08:31:58;;;;;;;0.95;0.70;;;18.30;40.90;;;;;;5085036;27;43489;-61
2022/03/07 08:34:25;;;;;;;0.57;0.52;;;18.40;40.90;;;;;;5085332;28;43416;-61
2022/03/07 08:36:53;;;;;;;0.80;0.80;;;18.40;40.90;;;;;;5084358;28;43502;-61
2022/03/07 08:39:20;;;;;;;0.60;0.60;;;18.40;40.90;;;;;;5085089;27;46058;-61
2022/03/07 08:41:48;;;;;;;0.85;0.68;;;18.40;40.90;;;;;;5085155;28;43449;-61
2022/03/07 08:44:15;;;;;;;0.98;0.88;;;18.40;40.80;;;;;;5084632;27;43420;-61
2022/03/07 08:46:43;;;;;;;2.00;1.00;;;18.50;40.80;;;;;;5084870;27;43517;-61
2022/03/07 08:49:10;;;;;;;1.00;0.90;;;18.50;40.90;;;;;;5084673;27;44032;-61
2022/03/07 08:51:39;;;;;;;1.00;0.77;;;18.40;40.80;;;;;;5084935;27;43823;-61
2022/03/07 08:54:06;;;;;;;1.27;1.02;;;18.50;40.80;;;;;;5084581;27;43430;-61
2022/03/07 08:56:33;;;;;;;2.13;0.75;;;18.50;40.80;;;;;;5084878;27;43416;-62
2022/03/07 08:59:02;;;;;;;1.23;1.10;;;18.50;41.00;;;;;;5084708;27;44059;-61
2022/03/07 09:01:29;;;;;;;1.42;1.20;;;18.60;41.00;;;;;;5081989;27;43459;-63
2022/03/07 09:03:57;;;;;;;1.75;1.23;;;18.60;40.80;;;;;;5081971;28;43995;-62
2022/03/07 09:06:24;;;;;;;1.60;1.50;;;18.60;40.90;;;;;;5084392;27;43532;-60
2022/03/07 09:08:52;;;;;;;1.75;1.25;;;18.70;40.90;;;;;;5078981;27;44821;-62
2022/03/07 09:11:23;;;;;;;1.38;1.20;;;18.80;41.00;;;;;;5084931;27;44151;-61
2022/03/07 09:13:50;;;;;;;1.40;1.30;;;18.90;40.90;;;;;;5083422;27;44125;-60
2022/03/07 09:16:18;;;;;;;1.48;1.15;;;19.00;40.90;;;;;;5084061;27;43449;-62
2022/03/07 09:18:45;;;;;;;1.35;1.20;;;19.20;40.90;;;;;;5078908;27;44949;-61
2022/03/07 09:21:13;;;;;;;1.48;1.38;;;19.30;40.80;;;;;;5082686;27;43775;-62
2022/03/07 09:23:42;;;;;;;1.63;1.15;;;19.40;41.00;;;;;;5082195;27;43597;-61
2022/03/07 09:26:09;;;;;;;0.93;0.93;;;19.60;40.70;;;;;;5083246;27;43372;-63
2022/03/07 09:28:37;;;;;;;1.95;1.20;;;19.80;40.60;;;;;;5085785;27;44780;-61
2022/03/07 09:31:06;;;;;;;2.35;0.90;;;19.90;40.90;;;;;;5083002;27;43534;-60
2022/03/07 09:33:33;;;;;;;1.23;1.10;;;20.10;40.70;;;;;;5083434;27;43416;-61
2022/03/07 09:36:01;;;;;;;2.72;1.20;;;20.20;40.60;;;;;;5082894;27;43521;-61
2022/03/07 09:38:29;;;;;;;1.25;1.00;;;20.30;40.70;;;;;;5083067;27;44656;-61
2022/03/07 09:40:57;;;;;;;1.95;0.80;;;20.40;40.40;;;;;;5081410;27;43695;-62
2022/03/07 09:43:24;;;;;;;1.25;0.77;;;20.60;40.30;;;;;;5083165;27;43444;-61
2022/03/07 09:45:53;;;;;;;4.03;1.05;;;20.70;40.40;;;;;;5082659;27;43519;-61
2022/03/07 09:48:23;;;;;;;1.98;1.00;;;20.80;40.20;;;;;;5082783;27;44057;-61
2022/03/07 09:50:52;;;;;;;2.08;0.90;;;20.90;39.90;;;;;;5083265;27;43502;-64
2022/03/07 09:53:20;;;;;;;2.53;0.88;;;21.00;39.70;;;;;;5083100;27;43454;-61
2022/03/07 09:55:48;;;;;;;2.53;0.77;;;21.10;39.80;;;;;;5080523;27;43746;-61
2022/03/07 09:58:16;;;;;;;1.80;0.98;;;21.20;39.70;;;;;;5082706;27;44922;-61
2022/03/07 10:00:44;;;;;;;1.42;0.90;;;21.40;39.70;;;;;;5082805;27;43856;-60
2022/03/07 10:03:14;;;;;;;2.92;1.38;;;21.40;39.60;;;;;;5080356;27;43432;-62
2022/03/07 10:05:45;;;;;;;2.42;0.90;;;21.50;39.50;;;;;;5082606;27;43655;-60
2022/03/07 10:08:25;;;;;;;2.08;0.80;;;21.60;39.40;;;;;;5081844;27;44719;-62
2022/03/07 10:10:54;;;;;;;1.45;0.90;;;21.70;39.40;;;;;;5082128;27;43517;-62
2022/03/07 10:13:23;;;;;;;2.00;0.77;;;21.80;39.30;;;;;;5082605;27;43460;-63
2022/03/07 10:15:59;;;;;;;2.75;0.88;;;21.80;39.20;;;;;;5082472;27;43990;-61
2022/03/07 10:18:28;;;;;;;1.30;0.77;;;21.90;39.30;;;;;;5079186;27;44093;-62
2022/03/07 10:21:01;;;;;;;1.10;1.00;;;21.90;39.10;;;;;;5079432;27;43533;-62
2022/03/07 10:23:29;;;;;;;0.80;0.80;;;22.00;39.10;;;;;;5082594;27;43474;-61
2022/03/07 10:26:07;;;;;;;1.90;0.80;;;22.10;39.10;;;;;;5082357;27;43525;-62
2022/03/07 10:28:41;;;;;;;1.90;0.82;;;22.10;39.00;;;;;;5081743;27;43737;-62
2022/03/07 10:31:15;;;;;;;1.40;1.13;;;22.20;39.00;;;;;;5081915;27;43445;-63
2022/03/07 10:33:47;;;;;;;2.40;0.95;;;22.20;39.00;;;;;;5082574;27;44118;-63
2022/03/07 10:36:15;;;;;;;2.30;0.90;;;22.20;39.00;;;;;;5076376;27;43489;-62
2022/03/07 10:38:43;;;;;;;2.33;0.90;;;22.30;38.90;;;;;;5079590;27;44900;-62
2022/03/07 10:41:11;;;;;;;1.42;1.00;;;22.30;38.90;;;;;;5082612;27;43426;-63
2022/03/07 10:43:50;;;;;;;2.67;0.82;;;22.30;38.80;;;;;;5080945;27;43491;-62
2022/03/07 10:46:26;;;;;;;2.65;0.98;;;22.40;38.90;;;;;;5079096;27;43456;-63
2022/03/07 10:48:54;;;;;;;3.63;1.45;;;22.40;38.80;;;;;;5084974;27;44963;-62
2022/03/07 10:51:22;;;;;;;3.00;1.08;;;22.50;38.80;;;;;;5086120;27;44007;-63
2022/03/07 10:53:49;;;;;;;2.45;1.15;;;22.50;38.90;;;;;;5085162;27;43478;-62
2022/03/07 10:56:18;;;;;;;2.15;1.30;;;22.50;38.80;;;;;;5085051;27;43402;-63
2022/03/07 10:58:52;;;;;;;3.13;1.20;;;22.60;38.80;;;;;;5085118;27;43566;-62
2022/03/07 11:01:30;;;;;;;2.60;1.20;;;22.70;38.90;;;;;;5085610;27;43508;-63
2022/03/07 11:03:59;;;;;;;3.28;1.60;;;22.70;38.80;;;;;;5070426;27;43498;-63
2022/03/07 11:06:28;;;;;;;2.10;1.27;;;22.70;38.80;;;;;;5083489;27;43565;-63
2022/03/07 11:08:56;;;;;;;1.77;1.10;;;22.80;38.90;;;;;;5082879;27;44255;-63
2022/03/07 11:11:24;;;;;;;2.30;1.48;;;22.80;38.80;;;;;;5085497;27;43519;-62
2022/03/07 11:13:55;;;;;;;5.03;1.40;;;22.90;38.90;;;;;;5085813;27;43463;-63
2022/03/07 11:16:27;;;;;;;2.58;1.30;;;23.00;38.90;;;;;;5085741;27;43619;-63
2022/03/07 11:18:56;;;;;;;1.42;1.10;;;23.00;38.90;;;;;;5064380;27;45832;-62
2022/03/07 11:21:30;;;;;;;4.45;1.50;;;23.00;38.90;;;;;;5080848;27;43502;-62
2022/03/07 11:23:58;;;;;;;4.07;1.60;;;23.00;38.90;;;;;;5084056;27;43533;-62
2022/03/07 11:26:26;;;;;;;2.25;1.60;;;23.10;38.90;;;;;;5084833;27;43509;-62
2022/03/07 11:28:57;;;;;;;3.33;1.58;;;23.10;39.00;;;;;;5079694;27;43750;-63
2022/03/07 11:31:28;;;;;;;2.53;1.30;;;23.10;38.90;;;;;;5082889;27;43574;-62
2022/03/07 11:33:56;;;;;;;;;;;23.20;39.00;;;;;;5085136;27;43432;-63
2022/03/07 11:36:26;;;;;;;2.80;1.20;;;23.20;39.00;;;;;;5085015;27;43573;-63
2022/03/07 11:38:58;;;;;;;3.22;1.50;;;23.20;39.00;;;;;;5082064;27;43952;-63
2022/03/07 11:41:31;;;;;;;2.53;1.13;;;23.20;38.90;;;;;;5083864;27;43597;-63
2022/03/07 11:44:04;;;;;;;3.53;1.20;;;23.30;38.90;;;;;;5082924;27;43508;-63
2022/03/07 11:46:40;;;;;;;3.08;1.40;;;23.30;39.00;;;;;;5085296;27;43457;-62
2022/03/07 11:49:10;;;;;;;3.28;1.50;;;23.30;39.00;;;;;;5084472;27;44944;-62
2022/03/07 11:51:40;;;;;;;3.70;1.30;;;23.30;39.00;;;;;;5085149;27;43528;-61
2022/03/07 11:54:20;;;;;;;2.70;1.38;;;23.30;38.90;;;;;;5084820;27;43489;-62
2022/03/07 11:56:47;;;;;;;2.70;1.33;;;23.30;39.00;;;;;;5082970;27;43525;-62
2022/03/07 11:59:15;;;;;;;2.75;1.30;;;23.30;39.00;;;;;;5083606;27;44128;-62
2022/03/07 12:01:53;;;;;;;2.20;1.30;;;23.30;39.00;;;;;;5086995;27;43534;-62
2022/03/07 12:04:21;;;;;;;2.45;1.10;;;23.30;39.00;;;;;;5083958;27;43461;-62
2022/03/07 12:06:49;;;;;;;1.73;1.10;;;23.30;39.00;;;;;;5083604;27;43500;-62
2022/03/07 12:09:32;;;;;;;2.55;1.40;;;23.30;39.00;;;;;;5082998;27;43888;-62
2022/03/07 12:12:14;;;;;;;3.00;1.33;;;23.30;39.00;;;;;;5080080;27;43470;-62
2022/03/07 12:14:43;;;;;;;;;;;23.30;39.00;;;;;;5083272;27;43445;-62
2022/03/07 12:17:18;;;;;;;2.97;1.20;;;23.20;38.90;;;;;;5084323;27;43984;-63
2022/03/07 12:19:57;;;;;;;2.10;1.20;;;23.20;39.00;;;;;;5083871;27;44890;-62
2022/03/07 12:22:30;;;;;;;2.67;1.08;;;23.30;39.00;;;;;;5081349;27;43463;-62
2022/03/07 12:25:07;;;;;;;1.60;1.00;;;23.30;39.00;;;;;;5081879;27;43497;-62
2022/03/07 12:27:38;;;;;;;2.45;1.00;;;23.30;39.00;;;;;;5083300;27;43506;-62
2022/03/07 12:30:08;;;;;;;1.35;0.90;;;23.30;39.00;;;;;;5084505;27;44048;-62
2022/03/07 12:32:38;;;;;;;1.95;1.30;;;23.30;39.10;;;;;;5090867;27;43514;-62
2022/03/07 12:35:07;;;;;;;2.50;0.95;;;23.30;39.10;;;;;;5077986;27;44035;-62
2022/03/07 12:37:37;;;;;;;1.30;0.93;;;23.40;39.20;;;;;;5083230;27;43557;-62
2022/03/07 12:40:08;;;;;;;1.55;0.90;;;23.40;39.10;;;;;;5085734;27;45103;-61
2022/03/07 12:42:38;;;;;;;1.98;1.10;;;23.40;39.10;;;;;;5080352;27;43499;-63
2022/03/07 12:45:07;;;;;;;2.58;1.30;;;23.40;39.20;;;;;;5083909;27;43509;-62
2022/03/07 12:47:37;;;;;;;1.17;0.90;;;23.40;39.10;;;;;;5083927;27;43517;-62
2022/03/07 12:50:07;;;;;;;1.38;1.02;;;23.40;39.10;;;;;;5083464;27;44057;-63
2022/03/07 12:52:37;;;;;;;1.20;1.00;;;23.40;39.30;;;;;;5082850;27;43615;-60
2022/03/07 12:55:14;;;;;;;1.35;0.90;;;23.50;39.20;;;;;;5079480;27;43486;-60
2022/03/07 12:57:42;;;;;;;1.65;0.82;;;23.40;39.10;;;;;;5082168;27;43602;-60